sensor_id;sensor_type;location;lat;lon;timestamp;pressure;altitude;pressure_sealevel;temperature;humidity
23473;BME280;11909;52.516;13.564;2022-11-27T00:01:29;102284.78;;;6.30;100.00
23473;BME280;11909;52.516;13.564;2022-11-27T00:03:57;102295.91;;;6.28;100.00
23473;BME280;11909;52.516;13.564;2022-11-27T00:06:26;102289.19;;;6.31;100.00
23473;BME280;11909;52.516;13.564;2022-11-27T00:08:55;102291.25;;;6.42;100.00
23473;BME280;11909;52.516;13.564;2022-11-27T00:11:24;102287.06;;;6.40;100.00
23473;BME280;11909;52.516;13.564;2022-11-27T00:13:54;102291.03;;;6.44;100.00
23473;BME280;11909;52.516;13.564;2022-11-27T00:16:22;102289.97;;;6.45;100.00
23473;BME280;11909;52.516;13.564;2022-11-27T00:18:51;102285.34;;;6.45;100.00
23473;BME280;11909;52.516;13.564;2022-11-27T00:21:21;102283.06;;;6.42;100.00
23473;BME280;11909;52.516;13.564;2022-11-27T00:23:50;102286.84;;;6.41;100.00
23473;BME280;11909;52.516;13.564;2022-11-27T00:26:18;102275.97;;;6.35;100.00
23473;BME280;11909;52.516;13.564;2022-11-27T00:28:46;102273.25;;;6.35;100.00
23473;BME280;11909;52.516;13.564;2022-11-27T00:31:16;102278.47;;;6.36;100.00
23473;BME280;11909;52.516;13.564;2022-11-27T00:33:45;102273.63;;;6.38;100.00
23473;BME280;11909;52.516;13.564;2022-11-27T00:36:13;102280.34;;;6.42;100.00
23473;BME280;11909;52.516;13.564;2022-11-27T00:38:41;102282.63;;;6.45;100.00
23473;BME280;11909;52.516;13.564;2022-11-27T00:41:10;102281.19;;;6.43;100.00
23473;BME280;11909;52.516;13.564;2022-11-27T00:43:39;102280.75;;;6.39;100.00
23473;BME280;11909;52.516;13.564;2022-11-27T00:46:11;102285.41;;;6.32;100.00
23473;BME280;11909;52.516;13.564;2022-11-27T00:48:40;102276.38;;;6.31;100.00
23473;BME280;11909;52.516;13.564;2022-11-27T00:51:11;102275.56;;;6.31;100.00
23473;BME280;11909;52.516;13.564;2022-11-27T00:53:39;102275.56;;;6.31;100.00
23473;BME280;11909;52.516;13.564;2022-11-27T00:56:08;102272.81;;;6.31;100.00
23473;BME280;11909;52.516;13.564;2022-11-27T00:58:36;102280.38;;;6.29;100.00
23473;BME280;11909;52.516;13.564;2022-11-27T01:01:05;102276.00;;;6.28;100.00
23473;BME280;11909;52.516;13.564;2022-11-27T01:03:34;102269.06;;;6.32;100.00
23473;BME280;11909;52.516;13.564;2022-11-27T01:06:03;102275.56;;;6.31;100.00
23473;BME280;11909;52.516;13.564;2022-11-27T01:08:32;102281.44;;;6.28;100.00
23473;BME280;11909;52.516;13.564;2022-11-27T01:11:00;102273.69;;;6.25;100.00
23473;BME280;11909;52.516;13.564;2022-11-27T01:13:30;102272.84;;;6.24;100.00
23473;BME280;11909;52.516;13.564;2022-11-27T01:15:59;102276.41;;;6.25;100.00
23473;BME280;11909;52.516;13.564;2022-11-27T01:18:27;102276.00;;;6.21;100.00
23473;BME280;11909;52.516;13.564;2022-11-27T01:20:55;102274.75;;;6.17;100.00
23473;BME280;11909;52.516;13.564;2022-11-27T01:23:24;102275.56;;;6.17;100.00
23473;BME280;11909;52.516;13.564;2022-11-27T01:25:52;102272.41;;;6.21;100.00
23473;BME280;11909;52.516;13.564;2022-11-27T01:28:21;102258.78;;;6.21;100.00
23473;BME280;11909;52.516;13.564;2022-11-27T01:30:50;102247.06;;;6.20;100.00
23473;BME280;11909;52.516;13.564;2022-11-27T01:33:18;102247.69;;;6.22;100.00
23473;BME280;11909;52.516;13.564;2022-11-27T01:35:53;102251.03;;;6.24;100.00
23473;BME280;11909;52.516;13.564;2022-11-27T01:38:21;102257.94;;;6.27;100.00
23473;BME280;11909;52.516;13.564;2022-11-27T01:40:55;102266.56;;;6.24;100.00
23473;BME280;11909;52.516;13.564;2022-11-27T01:43:38;102253.56;;;6.19;100.00
23473;BME280;11909;52.516;13.564;2022-11-27T01:46:15;102254.38;;;6.20;100.00
23473;BME280;11909;52.516;13.564;2022-11-27T01:48:50;102242.03;;;6.17;100.00
23473;BME280;11909;52.516;13.564;2022-11-27T01:51:18;102237.41;;;6.17;100.00
23473;BME280;11909;52.516;13.564;2022-11-27T01:53:47;102225.69;;;6.17;100.00
23473;BME280;11909;52.516;13.564;2022-11-27T01:56:17;102229.22;;;6.17;100.00
23473;BME280;11909;52.516;13.564;2022-11-27T01:58:45;102219.63;;;6.15;100.00
23473;BME280;11909;52.516;13.564;2022-11-27T02:01:13;102211.19;;;6.16;100.00
23473;BME280;11909;52.516;13.564;2022-11-27T02:03:41;102205.75;;;6.16;100.00
23473;BME280;11909;52.516;13.564;2022-11-27T02:06:10;102207.22;;;6.19;100.00
23473;BME280;11909;52.516;13.564;2022-11-27T02:08:39;102214.16;;;6.15;100.00
23473;BME280;11909;52.516;13.564;2022-11-27T02:11:12;102212.69;;;6.12;100.00
23473;BME280;11909;52.516;13.564;2022-11-27T02:13:47;102212.06;;;6.10;100.00
23473;BME280;11909;52.516;13.564;2022-11-27T02:16:23;102214.59;;;6.12;100.00
23473;BME280;11909;52.516;13.564;2022-11-27T02:18:58;102208.72;;;6.08;100.00
23473;BME280;11909;52.516;13.564;2022-11-27T02:21:32;102198.88;;;6.07;100.00
23473;BME280;11909;52.516;13.564;2022-11-27T02:24:24;102199.50;;;6.02;100.00
23473;BME280;11909;52.516;13.564;2022-11-27T02:27:46;102203.09;;;6.03;100.00
23473;BME280;11909;52.516;13.564;2022-11-27T02:30:18;102200.56;;;6.01;100.00
23473;BME280;11909;52.516;13.564;2022-11-27T02:32:48;102202.47;;;6.01;100.00
23473;BME280;11909;52.516;13.564;2022-11-27T02:35:24;102198.88;;;5.94;100.00
23473;BME280;11909;52.516;13.564;2022-11-27T02:37:56;102188.81;;;5.87;100.00
23473;BME280;11909;52.516;13.564;2022-11-27T02:40:29;102201.00;;;5.78;100.00
23473;BME280;11909;52.516;13.564;2022-11-27T02:43:00;102203.31;;;5.81;100.00
23473;BME280;11909;52.516;13.564;2022-11-27T02:45:32;102201.41;;;5.82;100.00
23473;BME280;11909;52.516;13.564;2022-11-27T02:48:02;102205.81;;;5.83;100.00
23473;BME280;11909;52.516;13.564;2022-11-27T02:50:33;102209.38;;;5.83;100.00
23473;BME280;11909;52.516;13.564;2022-11-27T02:53:04;102205.81;;;5.83;100.00
23473;BME280;11909;52.516;13.564;2022-11-27T02:55:35;102204.97;;;5.82;100.00
23473;BME280;11909;52.516;13.564;2022-11-27T02:58:08;102209.38;;;5.83;100.00
23473;BME280;11909;52.516;13.564;2022-11-27T03:00:39;102202.63;;;5.93;100.00
23473;BME280;11909;52.516;13.564;2022-11-27T03:03:09;102203.06;;;5.83;100.00
23473;BME280;11909;52.516;13.564;2022-11-27T03:05:42;102203.91;;;5.90;100.00
23473;BME280;11909;52.516;13.564;2022-11-27T03:08:19;102199.91;;;5.86;100.00
23473;BME280;11909;52.516;13.564;2022-11-27T03:10:53;102194.91;;;5.83;100.00
23473;BME280;11909;52.516;13.564;2022-11-27T03:13:23;102204.09;;;5.95;100.00
23473;BME280;11909;52.516;13.564;2022-11-27T03:16:00;102191.34;;;5.89;100.00
23473;BME280;11909;52.516;13.564;2022-11-27T03:18:36;102193.03;;;5.77;100.00
23473;BME280;11909;52.516;13.564;2022-11-27T03:21:13;102194.28;;;5.74;100.00
23473;BME280;11909;52.516;13.564;2022-11-27T03:23:44;102203.72;;;5.78;100.00
23473;BME280;11909;52.516;13.564;2022-11-27T03:26:11;102199.72;;;5.74;100.00
23473;BME280;11909;52.516;13.564;2022-11-27T03:28:41;102200.34;;;5.76;100.00
23473;BME280;11909;52.516;13.564;2022-11-27T03:31:11;102210.00;;;5.72;100.00
23473;BME280;11909;52.516;13.564;2022-11-27T03:33:39;102209.63;;;5.68;100.00
23473;BME280;11909;52.516;13.564;2022-11-27T03:36:12;102209.81;;;5.67;100.00
23473;BME280;11909;52.516;13.564;2022-11-27T03:38:40;102211.47;;;5.74;100.00
23473;BME280;11909;52.516;13.564;2022-11-27T03:41:16;102209.81;;;5.80;100.00
23473;BME280;11909;52.516;13.564;2022-11-27T03:43:54;102224.06;;;5.69;100.00
23473;BME280;11909;52.516;13.564;2022-11-27T03:46:30;102220.28;;;5.63;100.00
23473;BME280;11909;52.516;13.564;2022-11-27T03:49:08;102209.81;;;5.67;100.00
23473;BME280;11909;52.516;13.564;2022-11-27T03:51:44;102211.28;;;5.56;100.00
23473;BME280;11909;52.516;13.564;2022-11-27T03:54:21;102209.41;;;5.50;100.00
23473;BME280;11909;52.516;13.564;2022-11-27T03:56:54;102201.44;;;5.48;100.00
23473;BME280;11909;52.516;13.564;2022-11-27T03:59:27;102211.47;;;5.61;100.00
23473;BME280;11909;52.516;13.564;2022-11-27T04:01:57;102207.94;;;5.60;100.00
23473;BME280;11909;52.516;13.564;2022-11-27T04:04:25;102198.53;;;5.56;100.00
23473;BME280;11909;52.516;13.564;2022-11-27T04:06:53;102196.41;;;5.52;100.00
23473;BME280;11909;52.516;13.564;2022-11-27T04:09:20;102195.78;;;5.50;100.00
23473;BME280;11909;52.516;13.564;2022-11-27T04:11:48;102192.66;;;5.59;100.00
23473;BME280;11909;52.516;13.564;2022-11-27T04:14:16;102195.56;;;5.51;100.00
23473;BME280;11909;52.516;13.564;2022-11-27T04:16:43;102198.28;;;5.51;100.00
23473;BME280;11909;52.516;13.564;2022-11-27T04:19:12;102198.50;;;5.36;100.00
23473;BME280;11909;52.516;13.564;2022-11-27T04:21:40;102198.94;;;5.33;100.00
23473;BME280;11909;52.516;13.564;2022-11-27T04:24:08;102193.72;;;5.31;100.00
23473;BME280;11909;52.516;13.564;2022-11-27T04:26:35;102200.19;;;5.37;100.00
23473;BME280;11909;52.516;13.564;2022-11-27T04:29:03;102207.09;;;5.53;100.00
23473;BME280;11909;52.516;13.564;2022-11-27T04:31:31;102212.56;;;5.47;100.00
23473;BME280;11909;52.516;13.564;2022-11-27T04:33:58;102205.88;;;5.42;100.00
23473;BME280;11909;52.516;13.564;2022-11-27T04:36:27;102205.00;;;5.35;100.00
23473;BME280;11909;52.516;13.564;2022-11-27T04:39:01;102212.56;;;5.47;100.00
23473;BME280;11909;52.516;13.564;2022-11-27T04:41:29;102207.94;;;5.40;100.00
23473;BME280;11909;52.516;13.564;2022-11-27T04:43:56;102203.75;;;5.44;100.00
23473;BME280;11909;52.516;13.564;2022-11-27T04:46:24;102207.31;;;5.31;100.00
23473;BME280;11909;52.516;13.564;2022-11-27T04:48:52;102213.19;;;5.42;100.00
23473;BME280;11909;52.516;13.564;2022-11-27T04:51:19;102207.53;;;5.37;100.00
23473;BME280;11909;52.516;13.564;2022-11-27T04:53:48;102206.69;;;5.23;100.00
23473;BME280;11909;52.516;13.564;2022-11-27T04:56:16;102210.84;;;5.19;100.00
23473;BME280;11909;52.516;13.564;2022-11-27T04:58:44;102214.22;;;5.27;100.00
23473;BME280;11909;52.516;13.564;2022-11-27T05:01:12;102213.38;;;5.27;100.00
23473;BME280;11909;52.516;13.564;2022-11-27T05:03:41;102216.53;;;5.24;100.00
23473;BME280;11909;52.516;13.564;2022-11-27T05:06:09;102213.16;;;5.15;100.00
23473;BME280;11909;52.516;13.564;2022-11-27T05:08:36;102215.47;;;5.11;100.00
23473;BME280;11909;52.516;13.564;2022-11-27T05:11:07;102211.69;;;5.06;100.00
23473;BME280;11909;52.516;13.564;2022-11-27T05:13:37;102202.88;;;5.03;100.00
23473;BME280;11909;52.516;13.564;2022-11-27T05:16:05;102207.91;;;5.00;100.00
23473;BME280;11909;52.516;13.564;2022-11-27T05:18:33;102208.31;;;5.03;100.00
23473;BME280;11909;52.516;13.564;2022-11-27T05:21:02;102210.63;;;5.00;100.00
23473;BME280;11909;52.516;13.564;2022-11-27T05:23:31;102206.00;;;4.80;100.00
23473;BME280;11909;52.516;13.564;2022-11-27T05:25:59;102208.94;;;4.92;100.00
23473;BME280;11909;52.516;13.564;2022-11-27T05:28:28;102216.88;;;4.94;100.00
23473;BME280;11909;52.516;13.564;2022-11-27T05:30:55;102221.28;;;4.88;100.00
23473;BME280;11909;52.516;13.564;2022-11-27T05:33:23;102215.38;;;4.71;100.00
23473;BME280;11909;52.516;13.564;2022-11-27T05:35:51;102213.69;;;4.70;100.00
23473;BME280;11909;52.516;13.564;2022-11-27T05:38:19;102214.72;;;4.69;100.00
23473;BME280;11909;52.516;13.564;2022-11-27T05:40:47;102218.69;;;4.59;100.00
23473;BME280;11909;52.516;13.564;2022-11-27T05:43:15;102213.03;;;4.61;100.00
23473;BME280;11909;52.516;13.564;2022-11-27T05:45:44;102212.22;;;4.61;100.00
23473;BME280;11909;52.516;13.564;2022-11-27T05:48:11;102205.72;;;4.62;100.00
23473;BME280;11909;52.516;13.564;2022-11-27T05:50:39;102211.34;;;4.53;100.00
23473;BME280;11909;52.516;13.564;2022-11-27T05:53:07;102217.63;;;4.54;100.00
23473;BME280;11909;52.516;13.564;2022-11-27T05:55:34;102213.81;;;4.48;100.00
23473;BME280;11909;52.516;13.564;2022-11-27T05:58:02;102215.50;;;4.42;100.00
23473;BME280;11909;52.516;13.564;2022-11-27T06:00:30;102219.44;;;4.40;100.00
23473;BME280;11909;52.516;13.564;2022-11-27T06:02:59;102205.41;;;4.36;100.00
23473;BME280;11909;52.516;13.564;2022-11-27T06:05:26;102199.97;;;4.36;100.00
23473;BME280;11909;52.516;13.564;2022-11-27T06:07:54;102211.03;;;4.28;100.00
23473;BME280;11909;52.516;13.564;2022-11-27T06:10:22;102199.75;;;4.31;100.00
23473;BME280;11909;52.516;13.564;2022-11-27T06:12:50;102196.22;;;4.30;100.00
23473;BME280;11909;52.516;13.564;2022-11-27T06:15:17;102190.50;;;4.25;100.00
23473;BME280;11909;52.516;13.564;2022-11-27T06:17:47;102186.13;;;4.24;100.00
23473;BME280;11909;52.516;13.564;2022-11-27T06:20:16;102179.22;;;4.22;100.00
23473;BME280;11909;52.516;13.564;2022-11-27T06:22:45;102176.28;;;4.16;100.00
23473;BME280;11909;52.516;13.564;2022-11-27T06:25:13;102182.72;;;4.09;100.00
23473;BME280;11909;52.516;13.564;2022-11-27T06:27:40;102186.84;;;3.98;100.00
23473;BME280;11909;52.516;13.564;2022-11-27T06:30:09;102176.34;;;3.88;100.00
23473;BME280;11909;52.516;13.564;2022-11-27T06:32:37;102179.06;;;3.88;100.00
23473;BME280;11909;52.516;13.564;2022-11-27T06:35:05;102178.84;;;3.83;100.00
23473;BME280;11909;52.516;13.564;2022-11-27T06:37:34;102176.88;;;3.77;100.00
23473;BME280;11909;52.516;13.564;2022-11-27T06:40:03;102183.97;;;3.71;100.00
23473;BME280;11909;52.516;13.564;2022-11-27T06:42:31;102186.44;;;3.66;100.00
23473;BME280;11909;52.516;13.564;2022-11-27T06:44:59;102188.50;;;3.64;100.00
23473;BME280;11909;52.516;13.564;2022-11-27T06:47:27;102178.69;;;3.63;100.00
23473;BME280;11909;52.516;13.564;2022-11-27T06:49:54;102177.41;;;3.58;100.00
23473;BME280;11909;52.516;13.564;2022-11-27T06:52:22;102177.59;;;3.57;100.00
23473;BME280;11909;52.516;13.564;2022-11-27T06:54:51;102184.03;;;3.49;100.00
23473;BME280;11909;52.516;13.564;2022-11-27T06:57:19;102174.63;;;3.52;100.00
23473;BME280;11909;52.516;13.564;2022-11-27T06:59:46;102184.03;;;3.49;100.00
23473;BME280;11909;52.516;13.564;2022-11-27T07:02:15;102182.34;;;3.48;100.00
23473;BME280;11909;52.516;13.564;2022-11-27T07:04:43;102187.78;;;3.48;100.00
23473;BME280;11909;52.516;13.564;2022-11-27T07:07:11;102192.56;;;3.46;100.00
23473;BME280;11909;52.516;13.564;2022-11-27T07:09:39;102190.69;;;3.47;100.00
23473;BME280;11909;52.516;13.564;2022-11-27T07:12:08;102192.56;;;3.46;100.00
23473;BME280;11909;52.516;13.564;2022-11-27T07:14:36;102192.13;;;3.42;100.00
23473;BME280;11909;52.516;13.564;2022-11-27T07:17:04;102187.09;;;3.39;100.00
23473;BME280;11909;52.516;13.564;2022-11-27T07:19:32;102180.63;;;3.40;100.00
23473;BME280;11909;52.516;13.564;2022-11-27T07:22:00;102170.16;;;3.37;100.00
23473;BME280;11909;52.516;13.564;2022-11-27T07:24:28;102173.13;;;3.42;100.00
23473;BME280;11909;52.516;13.564;2022-11-27T07:26:56;102169.31;;;3.37;100.00
23473;BME280;11909;52.516;13.564;2022-11-27T07:29:25;102170.59;;;3.41;100.00
23473;BME280;11909;52.516;13.564;2022-11-27T07:31:52;102177.75;;;3.49;100.00
23473;BME280;11909;52.516;13.564;2022-11-27T07:34:20;102176.28;;;3.46;100.00
23473;BME280;11909;52.516;13.564;2022-11-27T07:36:48;102172.97;;;3.51;100.00
23473;BME280;11909;52.516;13.564;2022-11-27T07:39:16;102175.25;;;3.47;100.00
23473;BME280;11909;52.516;13.564;2022-11-27T07:42:04;102172.91;;;3.44;100.00
23473;BME280;11909;52.516;13.564;2022-11-27T07:44:53;102164.53;;;3.39;100.00
23473;BME280;11909;52.516;13.564;2022-11-27T07:47:20;102161.75;;;3.32;100.00
23473;BME280;11909;52.516;13.564;2022-11-27T07:49:48;102163.00;;;3.29;100.00
23473;BME280;11909;52.516;13.564;2022-11-27T07:52:16;102161.56;;;3.34;100.00
23473;BME280;11909;52.516;13.564;2022-11-27T07:54:44;102150.31;;;3.37;100.00
23473;BME280;11909;52.516;13.564;2022-11-27T07:57:11;102145.34;;;3.40;100.00
23473;BME280;11909;52.516;13.564;2022-11-27T07:59:39;102142.22;;;3.43;100.00
23473;BME280;11909;52.516;13.564;2022-11-27T08:02:14;102142.22;;;3.43;100.00
23473;BME280;11909;52.516;13.564;2022-11-27T08:04:42;102137.63;;;3.44;100.00
23473;BME280;11909;52.516;13.564;2022-11-27T08:07:10;102146.03;;;3.49;100.00
23473;BME280;11909;52.516;13.564;2022-11-27T08:09:38;102137.88;;;3.49;100.00
23473;BME280;11909;52.516;13.564;2022-11-27T08:12:06;102142.31;;;3.57;100.00
23473;BME280;11909;52.516;13.564;2022-11-27T08:14:33;102145.47;;;3.61;100.00
23473;BME280;11909;52.516;13.564;2022-11-27T08:17:01;102134.81;;;3.59;100.00
23473;BME280;11909;52.516;13.564;2022-11-27T08:19:30;102145.06;;;3.64;100.00
23473;BME280;11909;52.516;13.564;2022-11-27T08:21:58;102139.63;;;3.64;100.00
23473;BME280;11909;52.516;13.564;2022-11-27T08:24:26;102139.84;;;3.62;100.00
23473;BME280;11909;52.516;13.564;2022-11-27T08:26:54;102136.69;;;3.58;100.00
23473;BME280;11909;52.516;13.564;2022-11-27T08:29:21;102127.31;;;3.61;100.00
23473;BME280;11909;52.516;13.564;2022-11-27T08:31:49;102135.25;;;3.63;100.00
23473;BME280;11909;52.516;13.564;2022-11-27T08:34:17;102137.13;;;3.62;100.00
23473;BME280;11909;52.516;13.564;2022-11-27T08:36:46;102143.44;;;3.69;100.00
23473;BME280;11909;52.516;13.564;2022-11-27T08:39:14;102141.34;;;3.71;100.00
23473;BME280;11909;52.516;13.564;2022-11-27T08:41:42;102143.91;;;3.80;100.00
23473;BME280;11909;52.516;13.564;2022-11-27T08:44:09;102141.44;;;3.92;100.00
23473;BME280;11909;52.516;13.564;2022-11-27T08:46:37;102140.63;;;3.91;100.00
23473;BME280;11909;52.516;13.564;2022-11-27T08:49:05;102138.09;;;3.90;100.00
23473;BME280;11909;52.516;13.564;2022-11-27T08:51:33;102146.28;;;3.96;100.00
23473;BME280;11909;52.516;13.564;2022-11-27T08:54:02;102161.59;;;4.04;100.00
23473;BME280;11909;52.516;13.564;2022-11-27T08:56:30;102162.44;;;4.05;100.00
23473;BME280;11909;52.516;13.564;2022-11-27T08:58:58;102161.66;;;4.18;100.00
23473;BME280;11909;52.516;13.564;2022-11-27T09:01:27;102169.19;;;4.15;100.00
23473;BME280;11909;52.516;13.564;2022-11-27T09:03:55;102164.59;;;4.23;100.00
23473;BME280;11909;52.516;13.564;2022-11-27T09:06:25;102162.09;;;4.28;100.00
23473;BME280;11909;52.516;13.564;2022-11-27T09:08:54;102168.00;;;4.32;100.00
23473;BME280;11909;52.516;13.564;2022-11-27T09:11:25;102160.41;;;4.20;100.00
23473;BME280;11909;52.516;13.564;2022-11-27T09:13:53;102153.31;;;4.26;100.00
23473;BME280;11909;52.516;13.564;2022-11-27T09:16:21;102161.50;;;4.33;100.00
23473;BME280;11909;52.516;13.564;2022-11-27T09:18:50;102153.75;;;4.29;100.00
23473;BME280;11909;52.516;13.564;2022-11-27T09:21:21;102147.53;;;4.42;100.00
23473;BME280;11909;52.516;13.564;2022-11-27T09:23:52;102153.81;;;4.50;100.00
23473;BME280;11909;52.516;13.564;2022-11-27T09:26:20;102157.38;;;4.57;100.00
23473;BME280;11909;52.516;13.564;2022-11-27T09:28:51;102148.41;;;4.70;100.00
23473;BME280;11909;52.516;13.564;2022-11-27T09:31:20;102153.84;;;4.70;100.00
23473;BME280;11909;52.516;13.564;2022-11-27T09:33:48;102140.50;;;4.75;100.00
23473;BME280;11909;52.516;13.564;2022-11-27T09:36:17;102133.81;;;4.84;100.00
23473;BME280;11909;52.516;13.564;2022-11-27T09:38:46;102132.53;;;4.94;100.00
23473;BME280;11909;52.516;13.564;2022-11-27T09:41:31;102131.50;;;5.01;99.15
23473;BME280;11909;52.516;13.564;2022-11-27T09:44:12;102129.84;;;5.00;99.42
23473;BME280;11909;52.516;13.564;2022-11-27T09:46:43;102129.22;;;4.98;99.32
23473;BME280;11909;52.516;13.564;2022-11-27T09:49:14;102126.69;;;5.17;98.69
23473;BME280;11909;52.516;13.564;2022-11-27T09:51:50;102131.72;;;5.27;98.22
23473;BME280;11909;52.516;13.564;2022-11-27T09:54:23;102126.91;;;5.36;96.65
23473;BME280;11909;52.516;13.564;2022-11-27T09:56:54;102125.22;;;5.28;96.97
23473;BME280;11909;52.516;13.564;2022-11-27T09:59:28;102116.84;;;5.36;97.08
23473;BME280;11909;52.516;13.564;2022-11-27T10:01:57;102119.56;;;5.50;97.14
23473;BME280;11909;52.516;13.564;2022-11-27T10:04:24;102126.41;;;5.72;94.68
23473;BME280;11909;52.516;13.564;2022-11-27T10:07:15;102124.50;;;5.80;92.90
23473;BME280;11909;52.516;13.564;2022-11-27T10:10:00;102123.88;;;5.78;92.98
23473;BME280;11909;52.516;13.564;2022-11-27T10:12:36;102113.41;;;5.81;92.15
23473;BME280;11909;52.516;13.564;2022-11-27T10:15:13;102114.19;;;5.95;93.78
23473;BME280;11909;52.516;13.564;2022-11-27T10:17:45;102112.09;;;6.04;94.07
23473;BME280;11909;52.516;13.564;2022-11-27T10:20:23;102112.47;;;6.08;93.04
23473;BME280;11909;52.516;13.564;2022-11-27T10:22:59;102109.97;;;6.13;92.18
23473;BME280;11909;52.516;13.564;2022-11-27T10:25:34;102115.16;;;6.21;92.82
23473;BME280;11909;52.516;13.564;2022-11-27T10:28:13;102114.09;;;6.22;90.74
23473;BME280;11909;52.516;13.564;2022-11-27T10:30:50;102109.66;;;6.28;90.74
23473;BME280;11909;52.516;13.564;2022-11-27T10:33:23;102116.53;;;6.37;90.37
23473;BME280;11909;52.516;13.564;2022-11-27T10:35:52;102113.16;;;6.42;91.32
23473;BME280;11909;52.516;13.564;2022-11-27T10:38:22;102111.44;;;6.48;90.30
23473;BME280;11909;52.516;13.564;2022-11-27T10:40:58;102106.25;;;6.39;89.05
23473;BME280;11909;52.516;13.564;2022-11-27T10:43:33;102107.41;;;6.57;88.80
23473;BME280;11909;52.516;13.564;2022-11-27T10:46:04;102105.69;;;6.63;89.83
23473;BME280;11909;52.516;13.564;2022-11-27T10:48:36;102103.47;;;6.78;89.42
23473;BME280;11909;52.516;13.564;2022-11-27T10:51:11;102104.31;;;6.79;87.31
23473;BME280;11909;52.516;13.564;2022-11-27T10:53:41;102098.75;;;6.92;87.58
23473;BME280;11909;52.516;13.564;2022-11-27T10:56:36;102093.13;;;7.12;88.13
23473;BME280;11909;52.516;13.564;2022-11-27T10:59:10;102102.03;;;7.26;86.02
23473;BME280;11909;52.516;13.564;2022-11-27T11:01:43;102103.13;;;7.18;83.55
23473;BME280;11909;52.516;13.564;2022-11-27T11:04:12;102103.03;;;7.32;84.36
23473;BME280;11909;52.516;13.564;2022-11-27T11:07:01;102096.75;;;7.50;83.71
23473;BME280;11909;52.516;13.564;2022-11-27T11:09:30;102098.94;;;7.60;84.40
23473;BME280;11909;52.516;13.564;2022-11-27T11:12:05;102102.22;;;7.69;81.54
23473;BME280;11909;52.516;13.564;2022-11-27T11:14:33;102098.34;;;7.77;82.20
23473;BME280;11909;52.516;13.564;2022-11-27T11:17:16;102091.50;;;7.86;82.76
23473;BME280;11909;52.516;13.564;2022-11-27T11:19:44;102094.25;;;7.86;79.57
23473;BME280;11909;52.516;13.564;2022-11-27T11:22:13;102086.09;;;7.98;79.85
23473;BME280;11909;52.516;13.564;2022-11-27T11:24:44;102085.34;;;8.09;79.10
23473;BME280;11909;52.516;13.564;2022-11-27T11:27:15;102092.88;;;8.26;78.95
23473;BME280;11909;52.516;13.564;2022-11-27T11:29:46;102117.28;;;8.27;77.21
23473;BME280;11909;52.516;13.564;2022-11-27T11:32:26;102112.38;;;7.99;77.58
23473;BME280;11909;52.516;13.564;2022-11-27T11:34:58;102104.56;;;7.84;78.49
23473;BME280;11909;52.516;13.564;2022-11-27T11:37:28;102098.09;;;7.78;78.59
23473;BME280;11909;52.516;13.564;2022-11-27T11:39:59;102094.22;;;7.49;79.34
23473;BME280;11909;52.516;13.564;2022-11-27T11:42:29;102096.19;;;7.41;79.15
23473;BME280;11909;52.516;13.564;2022-11-27T11:45:01;102091.34;;;7.43;80.91
23473;BME280;11909;52.516;13.564;2022-11-27T11:47:31;102090.81;;;7.53;79.82
23473;BME280;11909;52.516;13.564;2022-11-27T11:49:59;102078.81;;;7.54;79.11
23473;BME280;11909;52.516;13.564;2022-11-27T11:52:40;102080.03;;;7.58;79.76
23473;BME280;11909;52.516;13.564;2022-11-27T11:55:16;102091.88;;;7.52;79.29
23473;BME280;11909;52.516;13.564;2022-11-27T11:58:20;102072.00;;;7.45;80.30
23473;BME280;11909;52.516;13.564;2022-11-27T12:00:59;102074.44;;;7.53;80.61
23473;BME280;11909;52.516;13.564;2022-11-27T12:04:00;102075.09;;;7.49;80.26
23473;BME280;11909;52.516;13.564;2022-11-27T12:06:43;102075.63;;;7.57;80.79
23473;BME280;11909;52.516;13.564;2022-11-27T12:09:24;102077.16;;;7.72;80.35
23473;BME280;11909;52.516;13.564;2022-11-27T12:11:58;102076.03;;;7.80;78.77
23473;BME280;11909;52.516;13.564;2022-11-27T12:14:38;102067.75;;;7.68;79.23
23473;BME280;11909;52.516;13.564;2022-11-27T12:17:12;102056.75;;;7.74;80.78
23473;BME280;11909;52.516;13.564;2022-11-27T12:19:54;102053.78;;;7.76;79.46
23473;BME280;11909;52.516;13.564;2022-11-27T12:22:40;102062.63;;;7.90;78.30
23473;BME280;11909;52.516;13.564;2022-11-27T12:25:22;102062.50;;;7.85;78.03
23473;BME280;11909;52.516;13.564;2022-11-27T12:28:04;102047.84;;;7.79;78.72
23473;BME280;11909;52.516;13.564;2022-11-27T12:30:43;102034.72;;;7.69;79.51
23473;BME280;11909;52.516;13.564;2022-11-27T12:33:35;102021.06;;;7.69;80.45
23473;BME280;11909;52.516;13.564;2022-11-27T12:36:13;102011.13;;;7.56;81.86
23473;BME280;11909;52.516;13.564;2022-11-27T12:38:52;102016.25;;;7.53;81.92
23473;BME280;11909;52.516;13.564;2022-11-27T12:41:50;102008.66;;;7.55;82.58
23473;BME280;11909;52.516;13.564;2022-11-27T12:44:29;102003.66;;;7.52;83.17
23473;BME280;11909;52.516;13.564;2022-11-27T12:47:02;102007.72;;;7.61;80.96
23473;BME280;11909;52.516;13.564;2022-11-27T12:49:37;102001.19;;;7.62;79.97
23473;BME280;11909;52.516;13.564;2022-11-27T12:52:11;101992.84;;;7.57;79.46
23473;BME280;11909;52.516;13.564;2022-11-27T12:54:46;101987.47;;;7.50;79.71
23473;BME280;11909;52.516;13.564;2022-11-27T12:57:19;101978.72;;;7.60;81.21
23473;BME280;11909;52.516;13.564;2022-11-27T12:59:52;101978.22;;;7.51;80.40
23473;BME280;11909;52.516;13.564;2022-11-27T13:02:27;101971.28;;;7.49;79.76
23473;BME280;11909;52.516;13.564;2022-11-27T13:05:02;101979.59;;;7.42;80.98